sensor_id;sensor_type;location;lat;lon;timestamp;temperature;humidity
12504;DHT22;6316;48.118;-1.690;2022-10-16T00:02:21;15.30;99.90
12504;DHT22;6316;48.118;-1.690;2022-10-16T00:04:46;15.30;99.90
12504;DHT22;6316;48.118;-1.690;2022-10-16T00:07:12;15.30;99.90
12504;DHT22;6316;48.118;-1.690;2022-10-16T00:09:37;15.30;99.90
12504;DHT22;6316;48.118;-1.690;2022-10-16T00:12:03;15.30;99.90
12504;DHT22;6316;48.118;-1.690;2022-10-16T00:14:31;15.30;99.90
12504;DHT22;6316;48.118;-1.690;2022-10-16T00:16:57;15.30;99.90
12504;DHT22;6316;48.118;-1.690;2022-10-16T00:19:23;15.30;99.90
12504;DHT22;6316;48.118;-1.690;2022-10-16T00:21:48;15.30;99.90
12504;DHT22;6316;48.118;-1.690;2022-10-16T00:24:14;15.30;99.90
12504;DHT22;6316;48.118;-1.690;2022-10-16T00:26:40;15.30;99.90
12504;DHT22;6316;48.118;-1.690;2022-10-16T00:29:06;15.30;99.90
12504;DHT22;6316;48.118;-1.690;2022-10-16T00:31:32;15.30;99.90
12504;DHT22;6316;48.118;-1.690;2022-10-16T00:33:58;15.30;99.90
12504;DHT22;6316;48.118;-1.690;2022-10-16T00:36:24;15.30;99.90
12504;DHT22;6316;48.118;-1.690;2022-10-16T00:38:52;15.30;99.90
12504;DHT22;6316;48.118;-1.690;2022-10-16T00:41:22;15.30;99.90
12504;DHT22;6316;48.118;-1.690;2022-10-16T00:44:03;15.30;99.90
12504;DHT22;6316;48.118;-1.690;2022-10-16T00:46:37;15.30;99.90
12504;DHT22;6316;48.118;-1.690;2022-10-16T00:49:17;15.30;99.90
12504;DHT22;6316;48.118;-1.690;2022-10-16T00:51:49;15.30;99.90
12504;DHT22;6316;48.118;-1.690;2022-10-16T00:54:19;15.30;99.90
12504;DHT22;6316;48.118;-1.690;2022-10-16T00:56:46;15.30;99.90
12504;DHT22;6316;48.118;-1.690;2022-10-16T00:59:19;15.30;99.90
12504;DHT22;6316;48.118;-1.690;2022-10-16T01:01:46;15.30;99.90
12504;DHT22;6316;48.118;-1.690;2022-10-16T01:04:12;15.30;99.90
12504;DHT22;6316;48.118;-1.690;2022-10-16T01:09:35;15.30;99.90
12504;DHT22;6316;48.118;-1.690;2022-10-16T01:12:13;15.30;99.90
12504;DHT22;6316;48.118;-1.690;2022-10-16T01:14:59;15.30;99.90
12504;DHT22;6316;48.118;-1.690;2022-10-16T01:17:28;15.30;99.90
12504;DHT22;6316;48.118;-1.690;2022-10-16T01:25:25;15.30;99.90
12504;DHT22;6316;48.118;-1.690;2022-10-16T01:27:56;15.30;99.90
12504;DHT22;6316;48.118;-1.690;2022-10-16T01:30:28;15.30;99.90
12504;DHT22;6316;48.118;-1.690;2022-10-16T01:33:02;15.30;99.90
12504;DHT22;6316;48.118;-1.690;2022-10-16T01:35:38;15.30;99.90
12504;DHT22;6316;48.118;-1.690;2022-10-16T01:38:10;15.30;99.90
12504;DHT22;6316;48.118;-1.690;2022-10-16T01:40:39;15.30;99.90
12504;DHT22;6316;48.118;-1.690;2022-10-16T01:43:28;15.30;99.90
12504;DHT22;6316;48.118;-1.690;2022-10-16T01:45:56;15.30;99.90
12504;DHT22;6316;48.118;-1.690;2022-10-16T01:48:23;15.30;99.90
12504;DHT22;6316;48.118;-1.690;2022-10-16T01:50:58;15.20;99.90
12504;DHT22;6316;48.118;-1.690;2022-10-16T01:53:26;15.20;99.90
12504;DHT22;6316;48.118;-1.690;2022-10-16T01:55:53;15.20;99.90
12504;DHT22;6316;48.118;-1.690;2022-10-16T01:58:22;15.20;99.90
12504;DHT22;6316;48.118;-1.690;2022-10-16T02:00:49;15.20;99.90
12504;DHT22;6316;48.118;-1.690;2022-10-16T02:03:18;15.20;99.90
12504;DHT22;6316;48.118;-1.690;2022-10-16T02:05:55;15.20;99.90
12504;DHT22;6316;48.118;-1.690;2022-10-16T02:08:23;15.10;99.90
12504;DHT22;6316;48.118;-1.690;2022-10-16T02:10:50;15.10;99.90
12504;DHT22;6316;48.118;-1.690;2022-10-16T02:15:50;15.10;99.90
12504;DHT22;6316;48.118;-1.690;2022-10-16T02:18:15;15.10;99.90
12504;DHT22;6316;48.118;-1.690;2022-10-16T02:20:51;15.00;99.90
12504;DHT22;6316;48.118;-1.690;2022-10-16T02:25:59;15.00;99.90
12504;DHT22;6316;48.118;-1.690;2022-10-16T02:28:35;15.00;99.90
12504;DHT22;6316;48.118;-1.690;2022-10-16T02:31:04;15.00;99.90
12504;DHT22;6316;48.118;-1.690;2022-10-16T02:33:31;15.00;99.90
12504;DHT22;6316;48.118;-1.690;2022-10-16T02:35:59;14.90;99.90
12504;DHT22;6316;48.118;-1.690;2022-10-16T02:38:25;14.90;99.90
12504;DHT22;6316;48.118;-1.690;2022-10-16T02:40:51;14.90;99.90
12504;DHT22;6316;48.118;-1.690;2022-10-16T02:43:17;14.90;99.90
12504;DHT22;6316;48.118;-1.690;2022-10-16T02:45:43;14.90;99.90
12504;DHT22;6316;48.118;-1.690;2022-10-16T02:48:09;14.90;99.90
12504;DHT22;6316;48.118;-1.690;2022-10-16T02:50:35;14.90;99.90
12504;DHT22;6316;48.118;-1.690;2022-10-16T02:53:00;14.90;99.90
12504;DHT22;6316;48.118;-1.690;2022-10-16T02:55:26;14.90;99.90
12504;DHT22;6316;48.118;-1.690;2022-10-16T02:57:53;14.90;99.90
12504;DHT22;6316;48.118;-1.690;2022-10-16T03:00:19;14.90;99.90
12504;DHT22;6316;48.118;-1.690;2022-10-16T03:02:45;14.90;99.90
12504;DHT22;6316;48.118;-1.690;2022-10-16T03:05:12;14.90;99.90
12504;DHT22;6316;48.118;-1.690;2022-10-16T03:07:37;14.90;99.90
12504;DHT22;6316;48.118;-1.690;2022-10-16T03:10:03;14.90;99.90
12504;DHT22;6316;48.118;-1.690;2022-10-16T03:12:29;14.90;99.90
12504;DHT22;6316;48.118;-1.690;2022-10-16T03:14:55;14.90;99.90
12504;DHT22;6316;48.118;-1.690;2022-10-16T03:17:22;14.90;99.90
12504;DHT22;6316;48.118;-1.690;2022-10-16T03:19:48;14.90;99.90
12504;DHT22;6316;48.118;-1.690;2022-10-16T03:22:14;14.90;99.90
12504;DHT22;6316;48.118;-1.690;2022-10-16T03:24:39;14.90;99.90
12504;DHT22;6316;48.118;-1.690;2022-10-16T03:27:05;14.90;99.90
12504;DHT22;6316;48.118;-1.690;2022-10-16T03:29:31;14.90;99.90
12504;DHT22;6316;48.118;-1.690;2022-10-16T03:31:58;15.00;99.90
12504;DHT22;6316;48.118;-1.690;2022-10-16T03:34:24;15.00;99.90
12504;DHT22;6316;48.118;-1.690;2022-10-16T03:36:50;15.00;99.90
12504;DHT22;6316;48.118;-1.690;2022-10-16T03:39:16;15.00;99.90
12504;DHT22;6316;48.118;-1.690;2022-10-16T03:41:42;15.00;99.90
12504;DHT22;6316;48.118;-1.690;2022-10-16T03:44:08;15.00;99.90
12504;DHT22;6316;48.118;-1.690;2022-10-16T03:46:33;15.10;99.90
12504;DHT22;6316;48.118;-1.690;2022-10-16T03:48:59;15.10;99.90
12504;DHT22;6316;48.118;-1.690;2022-10-16T03:51:24;15.10;99.90
12504;DHT22;6316;48.118;-1.690;2022-10-16T03:53:50;15.10;99.90
12504;DHT22;6316;48.118;-1.690;2022-10-16T03:56:16;15.20;99.90
12504;DHT22;6316;48.118;-1.690;2022-10-16T03:58:42;15.20;99.90
12504;DHT22;6316;48.118;-1.690;2022-10-16T04:01:08;15.20;99.90
12504;DHT22;6316;48.118;-1.690;2022-10-16T04:03:34;15.20;99.90
12504;DHT22;6316;48.118;-1.690;2022-10-16T04:05:59;15.20;99.90
12504;DHT22;6316;48.118;-1.690;2022-10-16T04:08:25;15.20;99.90
12504;DHT22;6316;48.118;-1.690;2022-10-16T04:10:50;15.20;99.90
12504;DHT22;6316;48.118;-1.690;2022-10-16T04:13:16;15.30;99.90
12504;DHT22;6316;48.118;-1.690;2022-10-16T04:15:42;15.30;99.90
12504;DHT22;6316;48.118;-1.690;2022-10-16T04:18:09;15.30;99.90
12504;DHT22;6316;48.118;-1.690;2022-10-16T04:20:35;15.30;99.90
12504;DHT22;6316;48.118;-1.690;2022-10-16T04:23:00;15.30;99.90
12504;DHT22;6316;48.118;-1.690;2022-10-16T04:25:26;15.30;99.90
12504;DHT22;6316;48.118;-1.690;2022-10-16T04:27:55;15.30;99.90
12504;DHT22;6316;48.118;-1.690;2022-10-16T04:30:22;15.40;99.90
12504;DHT22;6316;48.118;-1.690;2022-10-16T04:32:49;15.40;99.90
12504;DHT22;6316;48.118;-1.690;2022-10-16T04:35:15;15.40;99.90
12504;DHT22;6316;48.118;-1.690;2022-10-16T04:37:41;15.40;99.90
12504;DHT22;6316;48.118;-1.690;2022-10-16T04:40:07;15.40;99.90
12504;DHT22;6316;48.118;-1.690;2022-10-16T04:42:33;15.50;99.90
12504;DHT22;6316;48.118;-1.690;2022-10-16T04:44:58;15.50;99.90
12504;DHT22;6316;48.118;-1.690;2022-10-16T04:47:24;15.50;99.90
12504;DHT22;6316;48.118;-1.690;2022-10-16T04:49:50;15.50;99.90
12504;DHT22;6316;48.118;-1.690;2022-10-16T04:52:15;15.50;99.90
12504;DHT22;6316;48.118;-1.690;2022-10-16T04:54:41;15.50;99.90
12504;DHT22;6316;48.118;-1.690;2022-10-16T04:57:07;15.60;99.90
12504;DHT22;6316;48.118;-1.690;2022-10-16T04:59:32;15.60;99.90
12504;DHT22;6316;48.118;-1.690;2022-10-16T05:01:58;15.60;99.90
12504;DHT22;6316;48.118;-1.690;2022-10-16T05:04:24;15.60;99.90
12504;DHT22;6316;48.118;-1.690;2022-10-16T05:06:49;15.60;99.90
12504;DHT22;6316;48.118;-1.690;2022-10-16T05:09:15;15.60;99.90
12504;DHT22;6316;48.118;-1.690;2022-10-16T05:11:41;15.70;99.90
12504;DHT22;6316;48.118;-1.690;2022-10-16T05:14:06;15.70;99.90
12504;DHT22;6316;48.118;-1.690;2022-10-16T05:16:32;15.70;99.90
12504;DHT22;6316;48.118;-1.690;2022-10-16T05:18:57;15.70;99.90
12504;DHT22;6316;48.118;-1.690;2022-10-16T05:21:23;15.70;99.90
12504;DHT22;6316;48.118;-1.690;2022-10-16T05:23:49;15.70;99.90
12504;DHT22;6316;48.118;-1.690;2022-10-16T05:26:14;15.70;99.90
12504;DHT22;6316;48.118;-1.690;2022-10-16T05:28:40;15.70;99.90
12504;DHT22;6316;48.118;-1.690;2022-10-16T05:31:06;15.70;99.90
12504;DHT22;6316;48.118;-1.690;2022-10-16T05:33:32;15.80;99.90
12504;DHT22;6316;48.118;-1.690;2022-10-16T05:36:04;15.80;99.90
12504;DHT22;6316;48.118;-1.690;2022-10-16T05:38:30;15.80;99.90
12504;DHT22;6316;48.118;-1.690;2022-10-16T05:40:56;15.80;99.90
12504;DHT22;6316;48.118;-1.690;2022-10-16T05:43:22;15.80;99.90
12504;DHT22;6316;48.118;-1.690;2022-10-16T05:45:58;15.80;99.90
12504;DHT22;6316;48.118;-1.690;2022-10-16T05:48:25;15.80;99.90
12504;DHT22;6316;48.118;-1.690;2022-10-16T05:50:58;15.80;99.90
12504;DHT22;6316;48.118;-1.690;2022-10-16T05:53:24;15.80;99.90
12504;DHT22;6316;48.118;-1.690;2022-10-16T05:55:57;15.80;99.90
12504;DHT22;6316;48.118;-1.690;2022-10-16T05:58:24;15.80;99.90
12504;DHT22;6316;48.118;-1.690;2022-10-16T06:01:00;15.90;99.90
12504;DHT22;6316;48.118;-1.690;2022-10-16T06:03:26;15.90;99.90
12504;DHT22;6316;48.118;-1.690;2022-10-16T06:05:52;15.90;99.90
12504;DHT22;6316;48.118;-1.690;2022-10-16T06:08:20;15.90;99.90
12504;DHT22;6316;48.118;-1.690;2022-10-16T06:10:46;15.90;99.90
12504;DHT22;6316;48.118;-1.690;2022-10-16T06:13:13;15.90;99.90
12504;DHT22;6316;48.118;-1.690;2022-10-16T06:15:40;15.90;99.90
12504;DHT22;6316;48.118;-1.690;2022-10-16T06:18:10;15.90;99.90
12504;DHT22;6316;48.118;-1.690;2022-10-16T06:20:36;15.90;99.90
12504;DHT22;6316;48.118;-1.690;2022-10-16T06:23:02;15.90;99.90
12504;DHT22;6316;48.118;-1.690;2022-10-16T06:25:30;15.90;99.90
12504;DHT22;6316;48.118;-1.690;2022-10-16T06:27:56;15.90;99.90
12504;DHT22;6316;48.118;-1.690;2022-10-16T06:30:21;16.00;99.90
12504;DHT22;6316;48.118;-1.690;2022-10-16T06:32:47;16.00;99.90
12504;DHT22;6316;48.118;-1.690;2022-10-16T06:35:12;16.00;99.90
12504;DHT22;6316;48.118;-1.690;2022-10-16T06:37:38;16.00;99.90
12504;DHT22;6316;48.118;-1.690;2022-10-16T06:40:04;15.90;99.90
12504;DHT22;6316;48.118;-1.690;2022-10-16T06:42:30;15.90;99.90
12504;DHT22;6316;48.118;-1.690;2022-10-16T06:44:56;15.90;99.90
12504;DHT22;6316;48.118;-1.690;2022-10-16T06:47:21;15.90;99.90
12504;DHT22;6316;48.118;-1.690;2022-10-16T06:49:47;15.90;99.90
12504;DHT22;6316;48.118;-1.690;2022-10-16T06:52:13;15.90;99.90
12504;DHT22;6316;48.118;-1.690;2022-10-16T06:54:38;15.90;99.90
12504;DHT22;6316;48.118;-1.690;2022-10-16T06:57:04;15.90;99.90
12504;DHT22;6316;48.118;-1.690;2022-10-16T06:59:29;15.90;99.90
12504;DHT22;6316;48.118;-1.690;2022-10-16T07:01:55;15.90;99.90
12504;DHT22;6316;48.118;-1.690;2022-10-16T07:04:21;15.90;99.90
12504;DHT22;6316;48.118;-1.690;2022-10-16T07:06:46;16.00;99.90
12504;DHT22;6316;48.118;-1.690;2022-10-16T07:09:12;16.00;99.90
12504;DHT22;6316;48.118;-1.690;2022-10-16T07:11:39;16.00;99.90
12504;DHT22;6316;48.118;-1.690;2022-10-16T07:14:11;16.00;99.90
12504;DHT22;6316;48.118;-1.690;2022-10-16T07:16:37;16.00;99.90
12504;DHT22;6316;48.118;-1.690;2022-10-16T07:19:03;16.00;99.90
12504;DHT22;6316;48.118;-1.690;2022-10-16T07:21:31;16.10;99.90
12504;DHT22;6316;48.118;-1.690;2022-10-16T07:24:01;16.10;99.90
12504;DHT22;6316;48.118;-1.690;2022-10-16T07:26:28;16.20;99.90
12504;DHT22;6316;48.118;-1.690;2022-10-16T07:28:55;16.20;99.90
12504;DHT22;6316;48.118;-1.690;2022-10-16T07:31:22;16.30;99.90
12504;DHT22;6316;48.118;-1.690;2022-10-16T07:33:48;16.40;99.90
12504;DHT22;6316;48.118;-1.690;2022-10-16T07:36:18;16.40;99.90
12504;DHT22;6316;48.118;-1.690;2022-10-16T07:38:45;16.50;99.90
12504;DHT22;6316;48.118;-1.690;2022-10-16T07:41:13;16.40;99.90
12504;DHT22;6316;48.118;-1.690;2022-10-16T07:43:40;16.50;99.90
12504;DHT22;6316;48.118;-1.690;2022-10-16T07:46:06;16.60;99.90
12504;DHT22;6316;48.118;-1.690;2022-10-16T07:48:33;16.70;99.90
12504;DHT22;6316;48.118;-1.690;2022-10-16T07:51:04;16.70;99.90
12504;DHT22;6316;48.118;-1.690;2022-10-16T07:53:30;16.90;99.90
12504;DHT22;6316;48.118;-1.690;2022-10-16T07:56:04;17.00;99.90
12504;DHT22;6316;48.118;-1.690;2022-10-16T07:58:31;17.10;99.90
12504;DHT22;6316;48.118;-1.690;2022-10-16T08:00:57;17.20;99.90
12504;DHT22;6316;48.118;-1.690;2022-10-16T08:03:26;17.20;99.90
12504;DHT22;6316;48.118;-1.690;2022-10-16T08:05:52;17.30;99.90
12504;DHT22;6316;48.118;-1.690;2022-10-16T08:08:18;17.30;99.90
12504;DHT22;6316;48.118;-1.690;2022-10-16T08:10:44;17.40;99.90
12504;DHT22;6316;48.118;-1.690;2022-10-16T08:13:10;17.60;99.90
12504;DHT22;6316;48.118;-1.690;2022-10-16T08:15:35;17.80;99.90
12504;DHT22;6316;48.118;-1.690;2022-10-16T08:18:03;18.00;99.90
12504;DHT22;6316;48.118;-1.690;2022-10-16T08:20:30;18.10;99.90
12504;DHT22;6316;48.118;-1.690;2022-10-16T08:22:56;18.20;99.90
12504;DHT22;6316;48.118;-1.690;2022-10-16T08:25:23;18.20;99.90
12504;DHT22;6316;48.118;-1.690;2022-10-16T08:27:49;18.30;99.90
12504;DHT22;6316;48.118;-1.690;2022-10-16T08:30:16;18.30;99.90
12504;DHT22;6316;48.118;-1.690;2022-10-16T08:32:42;18.40;99.90
12504;DHT22;6316;48.118;-1.690;2022-10-16T08:35:11;18.30;99.90
12504;DHT22;6316;48.118;-1.690;2022-10-16T08:37:37;18.20;99.90
12504;DHT22;6316;48.118;-1.690;2022-10-16T08:40:05;18.20;99.90
12504;DHT22;6316;48.118;-1.690;2022-10-16T08:43:09;18.10;99.90
12504;DHT22;6316;48.118;-1.690;2022-10-16T08:48:17;18.10;99.90
12504;DHT22;6316;48.118;-1.690;2022-10-16T08:50:43;18.10;99.90
12504;DHT22;6316;48.118;-1.690;2022-10-16T08:53:24;18.10;99.90
12504;DHT22;6316;48.118;-1.690;2022-10-16T08:55:52;18.20;99.90
12504;DHT22;6316;48.118;-1.690;2022-10-16T08:58:25;18.10;99.90
12504;DHT22;6316;48.118;-1.690;2022-10-16T09:01:16;18.20;99.90
12504;DHT22;6316;48.118;-1.690;2022-10-16T09:06:23;18.20;99.90
12504;DHT22;6316;48.118;-1.690;2022-10-16T09:11:43;18.30;99.90
12504;DHT22;6316;48.118;-1.690;2022-10-16T09:16:56;18.40;99.90
12504;DHT22;6316;48.118;-1.690;2022-10-16T09:21:53;18.40;99.90
12504;DHT22;6316;48.118;-1.690;2022-10-16T09:24:22;18.40;99.90
12504;DHT22;6316;48.118;-1.690;2022-10-16T09:26:49;18.40;99.90
12504;DHT22;6316;48.118;-1.690;2022-10-16T09:29:20;18.40;99.90
12504;DHT22;6316;48.118;-1.690;2022-10-16T09:31:47;18.30;99.90
12504;DHT22;6316;48.118;-1.690;2022-10-16T09:34:34;18.30;99.90
12504;DHT22;6316;48.118;-1.690;2022-10-16T09:37:04;18.30;99.90
12504;DHT22;6316;48.118;-1.690;2022-10-16T09:39:31;18.40;99.90
12504;DHT22;6316;48.118;-1.690;2022-10-16T09:42:13;18.50;99.90
12504;DHT22;6316;48.118;-1.690;2022-10-16T09:44:39;18.50;99.90
12504;DHT22;6316;48.118;-1.690;2022-10-16T09:47:15;18.60;99.90
12504;DHT22;6316;48.118;-1.690;2022-10-16T09:52:19;18.60;99.90
12504;DHT22;6316;48.118;-1.690;2022-10-16T09:54:56;18.60;99.90
12504;DHT22;6316;48.118;-1.690;2022-10-16T09:57:23;18.70;99.90
12504;DHT22;6316;48.118;-1.690;2022-10-16T10:02:37;19.00;99.90
12504;DHT22;6316;48.118;-1.690;2022-10-16T10:05:05;18.90;99.90
12504;DHT22;6316;48.118;-1.690;2022-10-16T10:07:33;19.00;99.90
12504;DHT22;6316;48.118;-1.690;2022-10-16T10:10:03;19.00;99.90
12504;DHT22;6316;48.118;-1.690;2022-10-16T10:12:30;19.10;99.90
12504;DHT22;6316;48.118;-1.690;2022-10-16T10:15:07;19.10;99.90
12504;DHT22;6316;48.118;-1.690;2022-10-16T10:17:49;19.10;99.90
12504;DHT22;6316;48.118;-1.690;2022-10-16T10:22:48;19.10;99.90
12504;DHT22;6316;48.118;-1.690;2022-10-16T10:39:14;18.80;99.90
12504;DHT22;6316;48.118;-1.690;2022-10-16T10:42:02;18.60;99.90
12504;DHT22;6316;48.118;-1.690;2022-10-16T10:55:37;18.30;99.90
12504;DHT22;6316;48.118;-1.690;2022-10-16T11:06:15;17.90;99.90
12504;DHT22;6316;48.118;-1.690;2022-10-16T11:08:53;17.80;99.90
12504;DHT22;6316;48.118;-1.690;2022-10-16T11:12:02;17.70;99.90
12504;DHT22;6316;48.118;-1.690;2022-10-16T11:14:30;17.70;99.90
12504;DHT22;6316;48.118;-1.690;2022-10-16T11:17:09;17.60;99.90
12504;DHT22;6316;48.118;-1.690;2022-10-16T11:19:48;17.50;99.90
12504;DHT22;6316;48.118;-1.690;2022-10-16T11:22:35;17.50;99.90
12504;DHT22;6316;48.118;-1.690;2022-10-16T11:27:57;17.40;99.90
12504;DHT22;6316;48.118;-1.690;2022-10-16T11:30:29;17.40;99.90
12504;DHT22;6316;48.118;-1.690;2022-10-16T11:35:38;17.40;99.90
12504;DHT22;6316;48.118;-1.690;2022-10-16T11:38:29;17.30;99.90
12504;DHT22;6316;48.118;-1.690;2022-10-16T11:41:00;17.30;99.90
12504;DHT22;6316;48.118;-1.690;2022-10-16T11:45:58;17.30;99.90
12504;DHT22;6316;48.118;-1.690;2022-10-16T11:48:39;17.30;99.90
12504;DHT22;6316;48.118;-1.690;2022-10-16T11:56:43;17.20;99.90
12504;DHT22;6316;48.118;-1.690;2022-10-16T12:04:47;17.30;99.90
12504;DHT22;6316;48.118;-1.690;2022-10-16T12:07:23;17.30;99.90
12504;DHT22;6316;48.118;-1.690;2022-10-16T12:09:50;17.30;99.90
12504;DHT22;6316;48.118;-1.690;2022-10-16T12:12:38;17.40;99.90
12504;DHT22;6316;48.118;-1.690;2022-10-16T12:15:24;17.40;99.90
12504;DHT22;6316;48.118;-1.690;2022-10-16T12:17:50;17.40;99.90
12504;DHT22;6316;48.118;-1.690;2022-10-16T12:25:26;17.40;99.90
12504;DHT22;6316;48.118;-1.690;2022-10-16T12:28:05;17.50;99.90
12504;DHT22;6316;48.118;-1.690;2022-10-16T12:30:36;17.50;99.90
12504;DHT22;6316;48.118;-1.690;2022-10-16T12:33:25;17.60;99.90
12504;DHT22;6316;48.118;-1.690;2022-10-16T12:35:51;17.70;99.90
12504;DHT22;6316;48.118;-1.690;2022-10-16T12:38:35;17.70;99.90
12504;DHT22;6316;48.118;-1.690;2022-10-16T12:41:05;17.80;99.90
12504;DHT22;6316;48.118;-1.690;2022-10-16T12:43:51;17.80;99.90
12504;DHT22;6316;48.118;-1.690;2022-10-16T12:48:43;18.00;99.90
12504;DHT22;6316;48.118;-1.690;2022-10-16T12:54:24;18.20;99.90
12504;DHT22;6316;48.118;-1.690;2022-10-16T13:00:21;18.30;99.90
12504;DHT22;6316;48.118;-1.690;2022-10-16T13:14:00;18.60;99.90
12504;DHT22;6316;48.118;-1.690;2022-10-16T13:16:53;18.70;99.90
12504;DHT22;6316;48.118;-1.690;2022-10-16T13:22:40;18.80;99.90
12504;DHT22;6316;48.118;-1.690;2022-10-16T13:26:04;18.90;99.90
12504;DHT22;6316;48.118;-1.690;2022-10-16T13:28:33;19.00;99.90
12504;DHT22;6316;48.118;-1.690;2022-10-16T13:31:01;19.00;99.90
12504;DHT22;6316;48.118;-1.690;2022-10-16T13:33:36;19.10;99.90
12504;DHT22;6316;48.118;-1.690;2022-10-16T13:36:03;19.10;99.90
12504;DHT22;6316;48.118;-1.690;2022-10-16T13:38:34;19.10;99.90
12504;DHT22;6316;48.118;-1.690;2022-10-16T13:41:13;19.20;99.90
12504;DHT22;6316;48.118;-1.690;2022-10-16T13:43:51;19.20;99.90
12504;DHT22;6316;48.118;-1.690;2022-10-16T13:46:20;19.20;99.90
12504;DHT22;6316;48.118;-1.690;2022-10-16T13:48:59;19.30;99.90
12504;DHT22;6316;48.118;-1.690;2022-10-16T13:51:26;19.40;99.90
12504;DHT22;6316;48.118;-1.690;2022-10-16T13:53:52;19.40;99.90
12504;DHT22;6316;48.118;-1.690;2022-10-16T13:56:21;19.50;99.90
12504;DHT22;6316;48.118;-1.690;2022-10-16T13:59:01;19.50;99.90
12504;DHT22;6316;48.118;-1.690;2022-10-16T14:01:35;19.50;99.90
12504;DHT22;6316;48.118;-1.690;2022-10-16T14:04:10;19.60;99.90
12504;DHT22;6316;48.118;-1.690;2022-10-16T14:06:36;19.80;99.90
12504;DHT22;6316;48.118;-1.690;2022-10-16T14:09:07;19.90;99.90
12504;DHT22;6316;48.118;-1.690;2022-10-16T14:11:50;20.00;99.90
12504;DHT22;6316;48.118;-1.690;2022-10-16T14:14:19;20.10;99.90
12504;DHT22;6316;48.118;-1.690;2022-10-16T14:16:45;20.20;99.90
12504;DHT22;6316;48.118;-1.690;2022-10-16T14:19:26;20.20;99.90
12504;DHT22;6316;48.118;-1.690;2022-10-16T14:21:53;20.20;99.90
12504;DHT22;6316;48.118;-1.690;2022-10-16T14:24:33;20.20;99.90
12504;DHT22;6316;48.118;-1.690;2022-10-16T14:27:00;20.20;99.90
12504;DHT22;6316;48.118;-1.690;2022-10-16T14:29:27;20.10;99.90
12504;DHT22;6316;48.118;-1.690;2022-10-16T14:32:03;20.10;99.90
12504;DHT22;6316;48.118;-1.690;2022-10-16T14:34:37;20.20;99.90
12504;DHT22;6316;48.118;-1.690;2022-10-16T14:37:28;20.20;99.90
12504;DHT22;6316;48.118;-1.690;2022-10-16T14:39:55;20.30;99.90
12504;DHT22;6316;48.118;-1.690;2022-10-16T14:42:24;20.30;99.90
12504;DHT22;6316;48.118;-1.690;2022-10-16T14:44:54;20.30;99.90
12504;DHT22;6316;48.118;-1.690;2022-10-16T14:47:25;20.40;99.90
12504;DHT22;6316;48.118;-1.690;2022-10-16T14:49:53;20.40;99.90
12504;DHT22;6316;48.118;-1.690;2022-10-16T14:52:20;20.50;99.90
12504;DHT22;6316;48.118;-1.690;2022-10-16T14:54:48;20.60;99.90
12504;DHT22;6316;48.118;-1.690;2022-10-16T14:57:19;20.60;99.90
12504;DHT22;6316;48.118;-1.690;2022-10-16T14:59:47;20.70;99.90
12504;DHT22;6316;48.118;-1.690;2022-10-16T15:04:55;20.80;99.90
12504;DHT22;6316;48.118;-1.690;2022-10-16T15:07:21;20.80;99.90
12504;DHT22;6316;48.118;-1.690;2022-10-16T15:09:47;20.80;99.90
12504;DHT22;6316;48.118;-1.690;2022-10-16T15:12:13;20.80;99.90
12504;DHT22;6316;48.118;-1.690;2022-10-16T15:14:38;20.70;99.90
12504;DHT22;6316;48.118;-1.690;2022-10-16T15:17:04;20.70;99.90
12504;DHT22;6316;48.118;-1.690;2022-10-16T15:19:30;20.70;99.90
12504;DHT22;6316;48.118;-1.690;2022-10-16T15:21:56;20.70;99.90
12504;DHT22;6316;48.118;-1.690;2022-10-16T15:24:22;20.60;99.90
12504;DHT22;6316;48.118;-1.690;2022-10-16T15:26:47;20.60;99.90
12504;DHT22;6316;48.118;-1.690;2022-10-16T15:29:14;20.50;99.90
12504;DHT22;6316;48.118;-1.690;2022-10-16T15:31:40;20.40;99.90
12504;DHT22;6316;48.118;-1.690;2022-10-16T15:34:09;20.40;99.90
12504;DHT22;6316;48.118;-1.690;2022-10-16T15:36:37;20.40;99.90
12504;DHT22;6316;48.118;-1.690;2022-10-16T15:39:13;20.40;99.90
12504;DHT22;6316;48.118;-1.690;2022-10-16T15:41:39;20.40;99.90
12504;DHT22;6316;48.118;-1.690;2022-10-16T15:44:05;20.30;99.90
12504;DHT22;6316;48.118;-1.690;2022-10-16T15:46:31;20.30;99.90
12504;DHT22;6316;48.118;-1.690;2022-10-16T15:48:59;20.40;99.90
12504;DHT22;6316;48.118;-1.690;2022-10-16T15:51:25;20.30;99.90
12504;DHT22;6316;48.118;-1.690;2022-10-16T15:53:54;20.30;99.90
12504;DHT22;6316;48.118;-1.690;2022-10-16T15:56:21;20.40;99.90
12504;DHT22;6316;48.118;-1.690;2022-10-16T15:58:47;20.40;99.90
12504;DHT22;6316;48.118;-1.690;2022-10-16T16:01:13;20.40;99.90
12504;DHT22;6316;48.118;-1.690;2022-10-16T16:03:39;20.40;99.90
12504;DHT22;6316;48.118;-1.690;2022-10-16T16:06:08;20.50;99.90
12504;DHT22;6316;48.118;-1.690;2022-10-16T16:08:34;20.50;99.90
12504;DHT22;6316;48.118;-1.690;2022-10-16T16:11:02;20.50;99.90
12504;DHT22;6316;48.118;-1.690;2022-10-16T16:13:28;20.50;99.90
12504;DHT22;6316;48.118;-1.690;2022-10-16T16:15:54;20.50;99.90
12504;DHT22;6316;48.118;-1.690;2022-10-16T16:18:19;20.50;99.90
12504;DHT22;6316;48.118;-1.690;2022-10-16T16:20:45;20.50;99.90
12504;DHT22;6316;48.118;-1.690;2022-10-16T16:23:11;20.50;99.90
12504;DHT22;6316;48.118;-1.690;2022-10-16T16:25:36;20.40;99.90
12504;DHT22;6316;48.118;-1.690;2022-10-16T16:28:02;20.40;99.90
12504;DHT22;6316;48.118;-1.690;2022-10-16T16:30:28;20.30;99.90
12504;DHT22;6316;48.118;-1.690;2022-10-16T16:32:53;20.30;99.90
12504;DHT22;6316;48.118;-1.690;2022-10-16T16:35:19;20.30;99.90
12504;DHT22;6316;48.118;-1.690;2022-10-16T16:37:46;20.30;99.90
12504;DHT22;6316;48.118;-1.690;2022-10-16T16:40:12;20.30;99.90
12504;DHT22;6316;48.118;-1.690;2022-10-16T16:42:37;20.30;99.90
12504;DHT22;6316;48.118;-1.690;2022-10-16T16:45:03;20.30;99.90
12504;DHT22;6316;48.118;-1.690;2022-10-16T16:47:29;20.40;99.90
12504;DHT22;6316;48.118;-1.690;2022-10-16T16:49:54;20.30;99.90
12504;DHT22;6316;48.118;-1.690;2022-10-16T16:52:20;20.30;99.90
12504;DHT22;6316;48.118;-1.690;2022-10-16T16:54:47;20.30;99.90
12504;DHT22;6316;48.118;-1.690;2022-10-16T16:57:20;20.20;99.90
12504;DHT22;6316;48.118;-1.690;2022-10-16T16:59:46;20.20;99.90
12504;DHT22;6316;48.118;-1.690;2022-10-16T17:02:12;20.10;99.90
12504;DHT22;6316;48.118;-1.690;2022-10-16T17:04:37;20.10;99.90
12504;DHT22;6316;48.118;-1.690;2022-10-16T17:07:03;20.10;99.90
12504;DHT22;6316;48.118;-1.690;2022-10-16T17:09:28;20.00;99.90
12504;DHT22;6316;48.118;-1.690;2022-10-16T17:11:56;20.00;99.90
12504;DHT22;6316;48.118;-1.690;2022-10-16T17:14:23;19.90;99.90
12504;DHT22;6316;48.118;-1.690;2022-10-16T17:16:48;19.90;99.90
12504;DHT22;6316;48.118;-1.690;2022-10-16T17:19:16;19.90;99.90
12504;DHT22;6316;48.118;-1.690;2022-10-16T17:21:42;19.80;99.90
12504;DHT22;6316;48.118;-1.690;2022-10-16T17:24:08;19.80;99.90
12504;DHT22;6316;48.118;-1.690;2022-10-16T17:26:35;19.70;99.90
12504;DHT22;6316;48.118;-1.690;2022-10-16T17:29:06;19.70;99.90
12504;DHT22;6316;48.118;-1.690;2022-10-16T17:31:34;19.70;99.90
12504;DHT22;6316;48.118;-1.690;2022-10-16T17:34:03;19.60;99.90
12504;DHT22;6316;48.118;-1.690;2022-10-16T17:36:31;19.60;99.90
12504;DHT22;6316;48.118;-1.690;2022-10-16T17:39:06;19.60;99.90
12504;DHT22;6316;48.118;-1.690;2022-10-16T17:41:33;19.50;99.90